PWSweather.com
Personal Weather Stations
Station Observations
IONTARIO88
Lincoln, ON L0R

Lincoln, ON L0R

Lat: 43.1763563, Lon: -79.4719525

Elevation: 297

Station Type: Davis Vantage Pro 2 Plus

http://www.beamsvillewx.ca

High Low Average
Temperature 50.0°F10.0°F 32.2°F0.1°F 44.2°F6.8°F
Dew Point 47.1°F8.4°F 28.9°F-1.7°F 41.6°F5.3°F
Winds 12.0 mph N19.3 mph N Calm Calm 1.7 mph 2.7 mph
Wind Gusts 21.0 mph33.8 mph -- 5.0 mph8.0 mph
Humidity 94% 86% 91%
Pressure 29.85 in1010.80 in 29.09 in985.10 in -
Precipitation 2.37 in60.20 in - -
Hour Temp Dew Point Humidity Winds Wind Gusts Pressure Precip Precip Rate Daily Precip Total
12:00 AM 32.7°F0.4°C 29.3°F-1.5°C 87% Calm Calm 2.0 mph3.2 kmh 29.85 in1010.8 mb 0.00 in0.0 mm 0.00 in0.0 mm 0.00 in0.0 mm
12:15 AM 32.4°F0.2°C 28.9°F-1.7°C 87% Calm Calm -- 29.84 in1010.5 mb 0.00 in0.0 mm 0.00 in0.0 mm 0.00 in0.0 mm
12:30 AM 32.2°F0.1°C 29.0°F-1.7°C 88% Calm Calm -- 29.83 in1010.2 mb 0.00 in0.0 mm 0.00 in0.0 mm 0.00 in0.0 mm
12:45 AM 32.2°F0.1°C 29.0°F-1.7°C 88% Calm Calm -- 29.81 in1009.5 mb 0.00 in0.0 mm 0.00 in0.0 mm 0.00 in0.0 mm
01:00 AM 32.5°F0.3°C 29.4°F-1.4°C 88% Calm Calm -- 29.80 in1009.1 mb 0.00 in0.0 mm 0.00 in0.0 mm 0.00 in0.0 mm
01:15 AM 32.7°F0.4°C 29.6°F-1.3°C 88% Calm Calm -- 29.78 in1008.5 mb 0.00 in0.0 mm 0.00 in0.0 mm 0.00 in0.0 mm
01:30 AM 33.1°F0.6°C 30.2°F-1.0°C 89% Calm Calm 2.0 mph3.2 kmh 29.76 in1007.8 mb 0.00 in0.0 mm 0.00 in0.0 mm 0.00 in0.0 mm
01:45 AM 33.6°F0.9°C 30.7°F-0.7°C 89% Calm Calm -- 29.76 in1007.8 mb 0.00 in0.0 mm 0.00 in0.0 mm 0.00 in0.0 mm
02:00 AM 34.5°F1.4°C 31.3°F-0.4°C 88% 1.0 mph SW1.6 kmh SW 4.0 mph6.4 kmh 29.75 in1007.5 mb 0.00 in0.0 mm 0.00 in0.0 mm 0.00 in0.0 mm
02:15 AM 35.1°F1.7°C 31.6°F-0.2°C 87% 1.0 mph SW1.6 kmh SW 4.0 mph6.4 kmh 29.73 in1006.8 mb 0.00 in0.0 mm 0.00 in0.0 mm 0.00 in0.0 mm
02:30 AM 35.2°F1.8°C 31.8°F-0.1°C 87% Calm Calm 1.0 mph1.6 kmh 29.73 in1006.8 mb 0.00 in0.0 mm 0.00 in0.0 mm 0.00 in0.0 mm
02:45 AM 36.0°F2.2°C 32.5°F0.3°C 87% Calm Calm 3.0 mph4.8 kmh 29.73 in1006.8 mb 0.00 in0.0 mm 0.00 in0.0 mm 0.00 in0.0 mm
03:00 AM 36.3°F2.4°C 32.5°F0.3°C 86% Calm Calm -- 29.72 in1006.4 mb 0.00 in0.0 mm 0.00 in0.0 mm 0.00 in0.0 mm
03:15 AM 36.5°F2.5°C 32.7°F0.4°C 86% Calm Calm -- 29.71 in1006.1 mb 0.00 in0.0 mm 0.00 in0.0 mm 0.00 in0.0 mm
03:30 AM 36.5°F2.5°C 32.7°F0.4°C 86% Calm Calm -- 29.70 in1005.8 mb 0.00 in0.0 mm 0.00 in0.0 mm 0.00 in0.0 mm
03:45 AM 36.3°F2.4°C 32.8°F0.4°C 87% Calm Calm -- 29.69 in1005.4 mb 0.00 in0.0 mm 0.00 in0.0 mm 0.00 in0.0 mm
04:00 AM 36.1°F2.3°C 32.6°F0.3°C 87% Calm Calm -- 29.69 in1005.4 mb 0.00 in0.0 mm 0.00 in0.0 mm 0.00 in0.0 mm
04:15 AM 36.3°F2.4°C 32.8°F0.4°C 87% Calm Calm -- 29.69 in1005.4 mb 0.00 in0.0 mm 0.00 in0.0 mm 0.00 in0.0 mm
04:30 AM 36.7°F2.6°C 33.2°F0.7°C 87% Calm Calm -- 29.68 in1005.1 mb 0.00 in0.0 mm 0.00 in0.0 mm 0.00 in0.0 mm
04:45 AM 36.9°F2.7°C 33.4°F0.8°C 87% Calm Calm -- 29.67 in1004.7 mb 0.00 in0.0 mm 0.00 in0.0 mm 0.00 in0.0 mm
05:00 AM 37.2°F2.9°C 34.0°F1.1°C 88% Calm Calm 1.0 mph1.6 kmh 29.66 in1004.4 mb 0.00 in0.0 mm 0.00 in0.0 mm 0.00 in0.0 mm
05:15 AM 37.2°F2.9°C 34.0°F1.1°C 88% Calm Calm -- 29.64 in1003.7 mb 0.01 in0.3 mm 0.04 in1.0 mm 0.01 in0.3 mm
05:30 AM 37.4°F3.0°C 34.5°F1.4°C 89% Calm Calm -- 29.62 in1003.0 mb 0.02 in0.5 mm 0.04 in1.0 mm 0.02 in0.5 mm
05:45 AM 37.6°F3.1°C 34.9°F1.6°C 90% Calm Calm -- 29.61 in1002.7 mb 0.02 in0.5 mm 0.00 in0.0 mm 0.02 in0.5 mm
06:00 AM 39.4°F4.1°C 37.2°F2.9°C 92% 1.0 mph SW1.6 kmh SW 5.0 mph8.0 kmh 29.61 in1002.7 mb 0.02 in0.5 mm 0.00 in0.0 mm 0.02 in0.5 mm
06:15 AM 41.7°F5.4°C 39.6°F4.2°C 92% 2.0 mph SW3.2 kmh SW 7.0 mph11.3 kmh 29.61 in1002.7 mb 0.02 in0.5 mm 0.00 in0.0 mm 0.03 in0.8 mm
06:30 AM 43.2°F6.2°C 40.1°F4.5°C 89% 2.0 mph SW3.2 kmh SW 7.0 mph11.3 kmh 29.61 in1002.7 mb 0.02 in0.5 mm 0.00 in0.0 mm 0.04 in1.0 mm
06:45 AM 43.9°F6.6°C 40.6°F4.8°C 88% 1.0 mph SW1.6 kmh SW 4.0 mph6.4 kmh 29.57 in1001.4 mb 0.02 in0.5 mm 0.00 in0.0 mm 0.04 in1.0 mm
07:00 AM 44.4°F6.9°C 40.8°F4.9°C 87% 1.0 mph SSW1.6 kmh SSW 6.0 mph9.7 kmh 29.58 in1001.7 mb 0.02 in0.5 mm 0.00 in0.0 mm 0.04 in1.0 mm
07:15 AM 44.4°F6.9°C 41.1°F5.1°C 88% 1.0 mph SSW1.6 kmh SSW 5.0 mph8.0 kmh 29.56 in1001.0 mb 0.02 in0.5 mm 0.00 in0.0 mm 0.05 in1.3 mm
07:30 AM 45.1°F7.3°C 42.1°F5.6°C 89% 3.0 mph SW4.8 kmh SW 7.0 mph11.3 kmh 29.56 in1001.0 mb 0.01 in0.3 mm 0.00 in0.0 mm 0.05 in1.3 mm
07:45 AM 45.9°F7.7°C 42.8°F6.0°C 89% 5.0 mph SW8.0 kmh SW 15.0 mph24.1 kmh 29.56 in1001.0 mb 0.01 in0.3 mm 0.00 in0.0 mm 0.05 in1.3 mm
08:00 AM 46.2°F7.9°C 43.2°F6.2°C 89% 5.0 mph SW8.0 kmh SW 12.0 mph19.3 kmh 29.55 in1000.7 mb 0.00 in0.0 mm 0.00 in0.0 mm 0.05 in1.3 mm
08:15 AM 46.6°F8.1°C 43.5°F6.4°C 89% 5.0 mph SSW8.0 kmh SSW 11.0 mph17.7 kmh 29.54 in1000.3 mb 0.00 in0.0 mm 0.00 in0.0 mm 0.05 in1.3 mm
08:30 AM 46.8°F8.2°C 43.7°F6.5°C 89% 4.0 mph SW6.4 kmh SW 12.0 mph19.3 kmh 29.54 in1000.3 mb 0.00 in0.0 mm 0.00 in0.0 mm 0.05 in1.3 mm
08:45 AM 47.1°F8.4°C 44.0°F6.7°C 89% 5.0 mph SW8.0 kmh SW 13.0 mph20.9 kmh 29.55 in1000.7 mb 0.00 in0.0 mm 0.00 in0.0 mm 0.05 in1.3 mm
09:00 AM 47.7°F8.7°C 44.6°F7.0°C 89% 5.0 mph SW8.0 kmh SW 13.0 mph20.9 kmh 29.54 in1000.3 mb 0.00 in0.0 mm 0.00 in0.0 mm 0.05 in1.3 mm
09:15 AM 47.8°F8.8°C 44.8°F7.1°C 89% 4.0 mph SW6.4 kmh SW 13.0 mph20.9 kmh 29.54 in1000.3 mb 0.00 in0.0 mm 0.00 in0.0 mm 0.05 in1.3 mm
09:30 AM 48.2°F9.0°C 44.8°F7.1°C 88% 4.0 mph SW6.4 kmh SW 13.0 mph20.9 kmh 29.53 in1000.0 mb 0.00 in0.0 mm 0.00 in0.0 mm 0.05 in1.3 mm
09:45 AM 48.4°F9.1°C 45.0°F7.2°C 88% 4.0 mph SW6.4 kmh SW 10.0 mph16.1 kmh 29.54 in1000.3 mb 0.00 in0.0 mm 0.00 in0.0 mm 0.05 in1.3 mm
10:00 AM 48.4°F9.1°C 45.3°F7.4°C 89% 4.0 mph SW6.4 kmh SW 11.0 mph17.7 kmh 29.53 in1000.0 mb 0.00 in0.0 mm 0.00 in0.0 mm 0.05 in1.3 mm
10:15 AM 48.0°F8.9°C 45.2°F7.3°C 90% 4.0 mph SW6.4 kmh SW 11.0 mph17.7 kmh 29.52 in999.7 mb 0.00 in0.0 mm 0.00 in0.0 mm 0.05 in1.3 mm
10:30 AM 48.0°F8.9°C 45.2°F7.3°C 90% 3.0 mph SW4.8 kmh SW 7.0 mph11.3 kmh 29.51 in999.3 mb 0.00 in0.0 mm 0.00 in0.0 mm 0.05 in1.3 mm
10:45 AM 48.0°F8.9°C 45.5°F7.5°C 91% 3.0 mph SW4.8 kmh SW 9.0 mph14.5 kmh 29.50 in999.0 mb 0.00 in0.0 mm 0.00 in0.0 mm 0.05 in1.3 mm
11:00 AM 48.4°F9.1°C 45.9°F7.7°C 91% 3.0 mph SW4.8 kmh SW 11.0 mph17.7 kmh 29.50 in999.0 mb 0.00 in0.0 mm 0.00 in0.0 mm 0.05 in1.3 mm
11:15 AM 48.7°F9.3°C 45.9°F7.7°C 90% 3.0 mph SW4.8 kmh SW 8.0 mph12.9 kmh 29.48 in998.3 mb 0.00 in0.0 mm 0.00 in0.0 mm 0.05 in1.3 mm
11:30 AM 48.9°F9.4°C 45.8°F7.7°C 89% 4.0 mph SW6.4 kmh SW 9.0 mph14.5 kmh 29.47 in998.0 mb 0.00 in0.0 mm 0.00 in0.0 mm 0.05 in1.3 mm
11:45 AM 49.5°F9.7°C 46.4°F8.0°C 89% 3.0 mph SW4.8 kmh SW 7.0 mph11.3 kmh 29.46 in997.6 mb 0.00 in0.0 mm 0.00 in0.0 mm 0.05 in1.3 mm
12:00 PM 49.5°F9.7°C 46.4°F8.0°C 89% 4.0 mph SW6.4 kmh SW 14.0 mph22.5 kmh 29.45 in997.3 mb 0.00 in0.0 mm 0.00 in0.0 mm 0.05 in1.3 mm
12:15 PM 49.8°F9.9°C 46.7°F8.2°C 89% 2.0 mph SSW3.2 kmh SSW 7.0 mph11.3 kmh 29.44 in997.0 mb 0.00 in0.0 mm 0.00 in0.0 mm 0.05 in1.3 mm
12:30 PM 50.0°F10.0°C 46.6°F8.1°C 88% 5.0 mph SW8.0 kmh SW 14.0 mph22.5 kmh 29.44 in997.0 mb 0.00 in0.0 mm 0.00 in0.0 mm 0.05 in1.3 mm
12:45 PM 49.8°F9.9°C 46.4°F8.0°C 88% 4.0 mph SW6.4 kmh SW 13.0 mph20.9 kmh 29.44 in997.0 mb 0.00 in0.0 mm 0.00 in0.0 mm 0.05 in1.3 mm
01:00 PM 49.8°F9.9°C 46.7°F8.2°C 89% 3.0 mph SW4.8 kmh SW 9.0 mph14.5 kmh 29.43 in996.6 mb 0.00 in0.0 mm 0.00 in0.0 mm 0.05 in1.3 mm
01:15 PM 49.8°F9.9°C 46.7°F8.2°C 89% 2.0 mph SW3.2 kmh SW 10.0 mph16.1 kmh 29.42 in996.3 mb 0.00 in0.0 mm 0.00 in0.0 mm 0.05 in1.3 mm
01:30 PM 49.6°F9.8°C 46.8°F8.2°C 90% 3.0 mph SW4.8 kmh SW 9.0 mph14.5 kmh 29.40 in995.6 mb 0.00 in0.0 mm 0.00 in0.0 mm 0.05 in1.3 mm
01:45 PM 49.5°F9.7°C 46.9°F8.3°C 91% 1.0 mph SW1.6 kmh SW 4.0 mph6.4 kmh 29.39 in995.3 mb 0.00 in0.0 mm 0.00 in0.0 mm 0.05 in1.3 mm
02:00 PM 49.3°F9.6°C 47.1°F8.4°C 92% Calm Calm 3.0 mph4.8 kmh 29.37 in994.6 mb 0.00 in0.0 mm 0.00 in0.0 mm 0.05 in1.3 mm
02:15 PM 48.9°F9.4°C 46.7°F8.2°C 92% 2.0 mph SSW3.2 kmh SSW 5.0 mph8.0 kmh 29.37 in994.6 mb 0.00 in0.0 mm 0.00 in0.0 mm 0.05 in1.3 mm
02:30 PM 48.7°F9.3°C 46.5°F8.1°C 92% 2.0 mph SSW3.2 kmh SSW 6.0 mph9.7 kmh 29.35 in993.9 mb 0.00 in0.0 mm 0.00 in0.0 mm 0.05 in1.3 mm
02:45 PM 48.7°F9.3°C 46.5°F8.1°C 92% 1.0 mph SSW1.6 kmh SSW 5.0 mph8.0 kmh 29.34 in993.6 mb 0.00 in0.0 mm 0.00 in0.0 mm 0.05 in1.3 mm
03:00 PM 48.7°F9.3°C 46.5°F8.1°C 92% 1.0 mph SSW1.6 kmh SSW 3.0 mph4.8 kmh 29.33 in993.2 mb 0.00 in0.0 mm 0.00 in0.0 mm 0.05 in1.3 mm
03:15 PM 48.9°F9.4°C 46.7°F8.2°C 92% 1.0 mph SSW1.6 kmh SSW 4.0 mph6.4 kmh 29.32 in992.9 mb 0.00 in0.0 mm 0.00 in0.0 mm 0.05 in1.3 mm
03:30 PM 48.9°F9.4°C 46.7°F8.2°C 92% 1.0 mph SSW1.6 kmh SSW 4.0 mph6.4 kmh 29.32 in992.9 mb 0.00 in0.0 mm 0.00 in0.0 mm 0.05 in1.3 mm
03:45 PM 48.9°F9.4°C 46.7°F8.2°C 92% Calm Calm 2.0 mph3.2 kmh 29.32 in992.9 mb 0.01 in0.3 mm 0.04 in1.0 mm 0.06 in1.5 mm
04:00 PM 48.7°F9.3°C 46.5°F8.1°C 92% Calm Calm 2.0 mph3.2 kmh 29.30 in992.2 mb 0.04 in1.0 mm 0.04 in1.0 mm 0.09 in2.3 mm
04:15 PM 48.6°F9.2°C 46.6°F8.1°C 93% Calm Calm -- 29.30 in992.2 mb 0.07 in1.8 mm 0.12 in3.0 mm 0.12 in3.0 mm
04:30 PM 48.4°F9.1°C 46.4°F8.0°C 93% Calm Calm -- 29.31 in992.6 mb 0.09 in2.3 mm 0.08 in2.0 mm 0.14 in3.6 mm
04:45 PM 48.4°F9.1°C 46.4°F8.0°C 93% Calm Calm -- 29.30 in992.2 mb 0.13 in3.3 mm 0.16 in4.1 mm 0.18 in4.6 mm
05:00 PM 48.4°F9.1°C 46.4°F8.0°C 93% Calm Calm -- 29.29 in991.9 mb 0.13 in3.3 mm 0.00 in0.0 mm 0.23 in5.8 mm
05:15 PM 48.0°F8.9°C 46.1°F7.8°C 93% Calm Calm 1.0 mph1.6 kmh 29.27 in991.2 mb 0.15 in3.8 mm 0.08 in2.0 mm 0.27 in6.9 mm
05:30 PM 48.0°F8.9°C 46.1°F7.8°C 93% Calm Calm 2.0 mph3.2 kmh 29.27 in991.2 mb 0.15 in3.8 mm 0.00 in0.0 mm 0.30 in7.6 mm
05:45 PM 47.8°F8.8°C 45.9°F7.7°C 93% Calm Calm -- 29.24 in990.2 mb 0.13 in3.3 mm 0.00 in0.0 mm 0.32 in8.1 mm
06:00 PM 47.7°F8.7°C 46.0°F7.8°C 94% Calm Calm 2.0 mph3.2 kmh 29.23 in989.8 mb 0.10 in2.5 mm 0.00 in0.0 mm 0.33 in8.4 mm
06:15 PM 47.7°F8.7°C 46.0°F7.8°C 94% Calm Calm -- 29.23 in989.8 mb 0.06 in1.5 mm 0.00 in0.0 mm 0.33 in8.4 mm
06:30 PM 47.7°F8.7°C 46.0°F7.8°C 94% Calm Calm -- 29.23 in989.8 mb 0.05 in1.3 mm 0.00 in0.0 mm 0.35 in8.9 mm
06:45 PM 47.5°F8.6°C 45.8°F7.7°C 94% Calm Calm -- 29.21 in989.2 mb 0.04 in1.0 mm 0.00 in0.0 mm 0.36 in9.1 mm
07:00 PM 47.5°F8.6°C 45.8°F7.7°C 94% Calm Calm -- 29.20 in988.8 mb 0.06 in1.5 mm 0.03 in0.8 mm 0.39 in9.9 mm
07:15 PM 47.5°F8.6°C 45.8°F7.7°C 94% Calm Calm -- 29.18 in988.1 mb 0.07 in1.8 mm 0.04 in1.0 mm 0.40 in10.2 mm
07:30 PM 47.1°F8.4°C 45.5°F7.5°C 94% Calm Calm 3.0 mph4.8 kmh 29.18 in988.1 mb 0.06 in1.5 mm 0.00 in0.0 mm 0.41 in10.4 mm
07:45 PM 46.9°F8.3°C 45.3°F7.4°C 94% Calm Calm -- 29.16 in987.5 mb 0.05 in1.3 mm 0.00 in0.0 mm 0.41 in10.4 mm
08:00 PM 46.8°F8.2°C 45.1°F7.3°C 94% Calm Calm 1.0 mph1.6 kmh 29.17 in987.8 mb 0.02 in0.5 mm 0.00 in0.0 mm 0.41 in10.4 mm
08:15 PM 46.6°F8.1°C 44.9°F7.2°C 94% Calm Calm 2.0 mph3.2 kmh 29.15 in987.1 mb 0.02 in0.5 mm 0.00 in0.0 mm 0.43 in10.9 mm
08:30 PM 46.4°F8.0°C 44.8°F7.1°C 94% Calm Calm 3.0 mph4.8 kmh 29.14 in986.8 mb 0.02 in0.5 mm 0.00 in0.0 mm 0.43 in10.9 mm
08:45 PM 46.0°F7.8°C 44.4°F6.9°C 94% Calm Calm 2.0 mph3.2 kmh 29.14 in986.8 mb 0.04 in1.0 mm 0.08 in2.0 mm 0.45 in11.4 mm
09:00 PM 46.0°F7.8°C 44.4°F6.9°C 94% Calm Calm 4.0 mph6.4 kmh 29.14 in986.8 mb 0.05 in1.3 mm 0.01 in0.3 mm 0.46 in11.7 mm
09:15 PM 45.9°F7.7°C 44.2°F6.8°C 94% 1.0 mph SSW1.6 kmh SSW 4.0 mph6.4 kmh 29.12 in986.1 mb 0.06 in1.5 mm 0.04 in1.0 mm 0.48 in12.2 mm
09:30 PM 45.7°F7.6°C 44.1°F6.7°C 94% 2.0 mph E3.2 kmh E 5.0 mph8.0 kmh 29.10 in985.4 mb 0.06 in1.5 mm 0.00 in0.0 mm 0.50 in12.7 mm
09:45 PM 45.9°F7.7°C 44.2°F6.8°C 94% 1.0 mph ENE1.6 kmh ENE 4.0 mph6.4 kmh 29.11 in985.8 mb 0.06 in1.5 mm 0.00 in0.0 mm 0.50 in12.7 mm
10:00 PM 45.7°F7.6°C 44.1°F6.7°C 94% 1.0 mph ENE1.6 kmh ENE 3.0 mph4.8 kmh 29.10 in985.4 mb 0.05 in1.3 mm 0.00 in0.0 mm 0.51 in13.0 mm
10:15 PM 45.7°F7.6°C 44.1°F6.7°C 94% Calm Calm 2.0 mph3.2 kmh 29.10 in985.4 mb 0.04 in1.0 mm 0.00 in0.0 mm 0.52 in13.2 mm
10:30 PM 45.9°F7.7°C 44.2°F6.8°C 94% 1.0 mph ENE1.6 kmh ENE 5.0 mph8.0 kmh 29.09 in985.1 mb 0.04 in1.0 mm 0.00 in0.0 mm 0.54 in13.7 mm
10:45 PM 45.3°F7.4°C 43.7°F6.5°C 94% 4.0 mph NNW6.4 kmh NNW 11.0 mph17.7 kmh 29.10 in985.4 mb 0.04 in1.0 mm 0.00 in0.0 mm 0.54 in13.7 mm
11:00 PM 44.4°F6.9°C 42.8°F6.0°C 94% 7.0 mph NNW11.3 kmh NNW 17.0 mph27.4 kmh 29.10 in985.4 mb 0.06 in1.5 mm 0.03 in0.8 mm 0.57 in14.5 mm
11:15 PM 44.1°F6.7°C 42.4°F5.8°C 94% 9.0 mph NNW14.5 kmh NNW 15.0 mph24.1 kmh 29.11 in985.8 mb 0.06 in1.5 mm 0.00 in0.0 mm 0.57 in14.5 mm
11:30 PM 43.7°F6.5°C 42.1°F5.6°C 94% 8.0 mph NNW12.9 kmh NNW 14.0 mph22.5 kmh 29.12 in986.1 mb 0.07 in1.8 mm 0.04 in1.0 mm 0.61 in15.5 mm
11:45 PM 42.8°F6.0°C 41.2°F5.1°C 94% 12.0 mph N19.3 kmh N 21.0 mph33.8 kmh 29.11 in985.8 mb 0.10 in2.5 mm 0.12 in3.0 mm 0.65 in16.5 mm